sensor_id;sensor_type;location;lat;lon;timestamp;pressure;altitude;pressure_sealevel;temperature;humidity
25526;BME280;13424;48.424;11.258;2023-05-10T00:00:01;95010.75;;;17.46;82.66
25526;BME280;13424;48.424;11.258;2023-05-10T00:02:38;95014.25;;;17.61;82.50
25526;BME280;13424;48.424;11.258;2023-05-10T00:05:08;95008.94;;;17.42;83.15
25526;BME280;13424;48.424;11.258;2023-05-10T00:07:33;95010.75;;;17.46;83.42
25526;BME280;13424;48.424;11.258;2023-05-10T00:09:59;95002.25;;;17.39;83.43
25526;BME280;13424;48.424;11.258;2023-05-10T00:12:25;95002.47;;;17.56;82.85
25526;BME280;13424;48.424;11.258;2023-05-10T00:14:51;94998.38;;;17.59;82.96
25526;BME280;13424;48.424;11.258;2023-05-10T00:17:17;94998.66;;;17.57;83.00
25526;BME280;13424;48.424;11.258;2023-05-10T00:19:42;94995.03;;;17.35;84.06
25526;BME280;13424;48.424;11.258;2023-05-10T00:22:08;94994.66;;;17.41;83.51
25526;BME280;13424;48.424;11.258;2023-05-10T00:24:34;94992.97;;;17.13;84.50
25526;BME280;13424;48.424;11.258;2023-05-10T00:27:00;94993.25;;;17.30;83.86
25526;BME280;13424;48.424;11.258;2023-05-10T00:29:26;94987.19;;;17.38;83.85
25526;BME280;13424;48.424;11.258;2023-05-10T00:31:53;94982.56;;;17.52;83.17
25526;BME280;13424;48.424;11.258;2023-05-10T00:34:19;94985.28;;;17.39;83.95
25526;BME280;13424;48.424;11.258;2023-05-10T00:36:45;94986.97;;;17.48;83.30
25526;BME280;13424;48.424;11.258;2023-05-10T00:39:11;94986.97;;;17.48;83.41
25526;BME280;13424;48.424;11.258;2023-05-10T00:41:36;94984.69;;;17.55;83.12
25526;BME280;13424;48.424;11.258;2023-05-10T00:44:04;94981.09;;;17.14;85.33
25526;BME280;13424;48.424;11.258;2023-05-10T00:46:30;94981.09;;;17.46;84.04
25526;BME280;13424;48.424;11.258;2023-05-10T00:48:57;94980.00;;;17.47;83.46
25526;BME280;13424;48.424;11.258;2023-05-10T00:51:23;94984.09;;;17.58;83.27
25526;BME280;13424;48.424;11.258;2023-05-10T00:53:49;94972.69;;;17.34;83.97
25526;BME280;13424;48.424;11.258;2023-05-10T00:56:16;94983.19;;;17.49;83.47
25526;BME280;13424;48.424;11.258;2023-05-10T00:58:42;94970.84;;;17.29;84.40
25526;BME280;13424;48.424;11.258;2023-05-10T01:01:09;94980.47;;;17.36;84.22
25526;BME280;13424;48.424;11.258;2023-05-10T01:03:35;94976.84;;;17.26;83.84
25526;BME280;13424;48.424;11.258;2023-05-10T01:06:01;94968.50;;;16.95;85.49
25526;BME280;13424;48.424;11.258;2023-05-10T01:08:27;94975.63;;;17.19;84.59
25526;BME280;13424;48.424;11.258;2023-05-10T01:10:54;94975.03;;;17.22;84.40
25526;BME280;13424;48.424;11.258;2023-05-10T01:13:36;94978.09;;;17.01;85.59
25526;BME280;13424;48.424;11.258;2023-05-10T01:16:04;94972.88;;;17.24;84.37
25526;BME280;13424;48.424;11.258;2023-05-10T01:18:31;94964.84;;;17.19;84.51
25526;BME280;13424;48.424;11.258;2023-05-10T01:26:33;94961.97;;;17.29;84.76
25526;BME280;13424;48.424;11.258;2023-05-10T01:32:27;94971.00;;;17.06;84.86
25526;BME280;13424;48.424;11.258;2023-05-10T01:35:25;94970.44;;;17.09;85.08
25526;BME280;13424;48.424;11.258;2023-05-10T01:41:28;94968.22;;;17.11;84.88
25526;BME280;13424;48.424;11.258;2023-05-10T01:47:10;94973.19;;;16.71;86.11
25526;BME280;13424;48.424;11.258;2023-05-10T01:49:47;94979.06;;;16.92;85.87
25526;BME280;13424;48.424;11.258;2023-05-10T01:52:18;94973.19;;;17.03;85.35
25526;BME280;13424;48.424;11.258;2023-05-10T01:54:53;94986.66;;;17.03;85.53
25526;BME280;13424;48.424;11.258;2023-05-10T01:57:21;94983.41;;;17.20;84.97
25526;BME280;13424;48.424;11.258;2023-05-10T01:59:49;94976.91;;;17.08;85.05
25526;BME280;13424;48.424;11.258;2023-05-10T02:02:16;94980.03;;;17.15;84.96
25526;BME280;13424;48.424;11.258;2023-05-10T02:04:44;94976.31;;;17.11;84.95
25526;BME280;13424;48.424;11.258;2023-05-10T02:07:11;94986.53;;;16.95;85.11
25526;BME280;13424;48.424;11.258;2023-05-10T02:09:37;94974.38;;;16.97;85.08
25526;BME280;13424;48.424;11.258;2023-05-10T02:12:05;94979.56;;;16.94;85.26
25526;BME280;13424;48.424;11.258;2023-05-10T02:14:35;94972.44;;;16.84;85.95
25526;BME280;13424;48.424;11.258;2023-05-10T02:17:05;94976.91;;;17.08;85.10
25526;BME280;13424;48.424;11.258;2023-05-10T02:19:32;94981.59;;;17.02;85.10
25526;BME280;13424;48.424;11.258;2023-05-10T02:21:59;94984.38;;;16.78;85.84
25526;BME280;13424;48.424;11.258;2023-05-10T02:24:26;94981.16;;;16.57;86.60
25526;BME280;13424;48.424;11.258;2023-05-10T02:26:54;94980.78;;;16.64;86.34
25526;BME280;13424;48.424;11.258;2023-05-10T02:29:23;94979.94;;;16.87;85.54
25526;BME280;13424;48.424;11.258;2023-05-10T02:31:54;94981.25;;;16.71;85.87
25526;BME280;13424;48.424;11.258;2023-05-10T02:34:25;94984.03;;;16.85;85.98
25526;BME280;13424;48.424;11.258;2023-05-10T02:36:52;94988.38;;;16.62;86.43
25526;BME280;13424;48.424;11.258;2023-05-10T02:39:19;94983.00;;;16.62;86.23
25526;BME280;13424;48.424;11.258;2023-05-10T02:41:47;94984.44;;;16.73;86.12
25526;BME280;13424;48.424;11.258;2023-05-10T02:44:17;94992.88;;;16.29;88.03
25526;BME280;13424;48.424;11.258;2023-05-10T02:46:44;94984.72;;;16.90;84.95
25526;BME280;13424;48.424;11.258;2023-05-10T02:49:10;94978.75;;;16.93;84.90
25526;BME280;13424;48.424;11.258;2023-05-10T02:51:50;94978.06;;;16.69;85.83
25526;BME280;13424;48.424;11.258;2023-05-10T02:54:20;94981.19;;;16.76;85.64
25526;BME280;13424;48.424;11.258;2023-05-10T02:56:58;94983.56;;;16.59;86.60
25526;BME280;13424;48.424;11.258;2023-05-10T02:59:28;94983.00;;;16.81;85.39
25526;BME280;13424;48.424;11.258;2023-05-10T03:01:54;94979.94;;;16.50;86.66
25526;BME280;13424;48.424;11.258;2023-05-10T03:04:20;94986.91;;;16.51;86.28
25526;BME280;13424;48.424;11.258;2023-05-10T03:06:46;94992.00;;;16.14;88.11
25526;BME280;13424;48.424;11.258;2023-05-10T03:09:12;94989.44;;;16.42;86.62
25526;BME280;13424;48.424;11.258;2023-05-10T03:14:34;94982.06;;;16.53;86.53
25526;BME280;13424;48.424;11.258;2023-05-10T03:17:19;94989.31;;;16.52;86.44
25526;BME280;13424;48.424;11.258;2023-05-10T03:20:04;94996.22;;;16.39;86.85
25526;BME280;13424;48.424;11.258;2023-05-10T03:22:41;94993.47;;;16.44;86.77
25526;BME280;13424;48.424;11.258;2023-05-10T03:25:11;94995.34;;;16.25;87.25
25526;BME280;13424;48.424;11.258;2023-05-10T03:27:40;94990.84;;;16.39;86.63
25526;BME280;13424;48.424;11.258;2023-05-10T03:30:12;94995.63;;;16.42;86.53
25526;BME280;13424;48.424;11.258;2023-05-10T03:32:38;94991.38;;;15.99;88.58
25526;BME280;13424;48.424;11.258;2023-05-10T03:35:12;94995.44;;;15.96;88.96
25526;BME280;13424;48.424;11.258;2023-05-10T03:37:39;94996.88;;;15.88;88.96
25526;BME280;13424;48.424;11.258;2023-05-10T03:40:07;95000.09;;;15.90;89.03
25526;BME280;13424;48.424;11.258;2023-05-10T03:42:35;94996.16;;;16.02;88.17
25526;BME280;13424;48.424;11.258;2023-05-10T03:45:01;95006.09;;;16.25;87.61
25526;BME280;13424;48.424;11.258;2023-05-10T03:47:27;95005.41;;;16.38;86.75
25526;BME280;13424;48.424;11.258;2023-05-10T03:49:55;95002.41;;;16.21;87.31
25526;BME280;13424;48.424;11.258;2023-05-10T03:52:22;95010.22;;;16.17;88.00
25526;BME280;13424;48.424;11.258;2023-05-10T03:54:47;95011.88;;;16.37;86.93
25526;BME280;13424;48.424;11.258;2023-05-10T03:57:13;95008.25;;;16.04;87.69
25526;BME280;13424;48.424;11.258;2023-05-10T03:59:39;95010.91;;;16.28;87.05
25526;BME280;13424;48.424;11.258;2023-05-10T04:02:05;95014.09;;;15.87;89.38
25526;BME280;13424;48.424;11.258;2023-05-10T04:04:31;95016.13;;;15.96;88.72
25526;BME280;13424;48.424;11.258;2023-05-10T04:06:58;95011.63;;;15.67;90.59
25526;BME280;13424;48.424;11.258;2023-05-10T04:09:24;95018.53;;;16.21;87.90
25526;BME280;13424;48.424;11.258;2023-05-10T04:11:49;95017.69;;;16.02;88.83
25526;BME280;13424;48.424;11.258;2023-05-10T04:14:15;95031.88;;;16.07;88.17
25526;BME280;13424;48.424;11.258;2023-05-10T04:16:41;95029.00;;;15.46;88.36
25526;BME280;13424;48.424;11.258;2023-05-10T04:19:07;95038.06;;;14.92;89.65
25526;BME280;13424;48.424;11.258;2023-05-10T04:21:33;95038.72;;;15.13;88.16
25526;BME280;13424;48.424;11.258;2023-05-10T04:24:02;95034.47;;;15.06;89.01
25526;BME280;13424;48.424;11.258;2023-05-10T04:26:28;95036.47;;;15.54;87.18
25526;BME280;13424;48.424;11.258;2023-05-10T04:28:53;95040.84;;;15.16;87.61
25526;BME280;13424;48.424;11.258;2023-05-10T04:31:19;95047.66;;;15.32;87.24
25526;BME280;13424;48.424;11.258;2023-05-10T04:33:45;95043.88;;;15.09;88.51
25526;BME280;13424;48.424;11.258;2023-05-10T04:36:11;95043.44;;;15.26;88.08
25526;BME280;13424;48.424;11.258;2023-05-10T04:38:36;95054.31;;;15.40;87.33
25526;BME280;13424;48.424;11.258;2023-05-10T04:41:09;95057.13;;;15.58;86.59
25526;BME280;13424;48.424;11.258;2023-05-10T04:43:36;95057.66;;;15.55;86.36
25526;BME280;13424;48.424;11.258;2023-05-10T04:46:02;95066.22;;;15.91;85.80
25526;BME280;13424;48.424;11.258;2023-05-10T04:48:28;95071.19;;;16.03;85.43
25526;BME280;13424;48.424;11.258;2023-05-10T04:50:54;95064.81;;;15.70;85.68
25526;BME280;13424;48.424;11.258;2023-05-10T04:53:20;95062.19;;;15.65;85.93
25526;BME280;13424;48.424;11.258;2023-05-10T04:55:46;95069.22;;;15.61;86.30
25526;BME280;13424;48.424;11.258;2023-05-10T04:58:13;95077.44;;;15.99;85.52
25526;BME280;13424;48.424;11.258;2023-05-10T05:00:38;95082.13;;;15.88;85.82
25526;BME280;13424;48.424;11.258;2023-05-10T05:03:04;95079.06;;;15.71;86.09
25526;BME280;13424;48.424;11.258;2023-05-10T05:05:30;95083.38;;;15.96;85.29
25526;BME280;13424;48.424;11.258;2023-05-10T05:07:56;95086.47;;;16.08;85.09
25526;BME280;13424;48.424;11.258;2023-05-10T05:10:22;95087.19;;;15.60;86.25
25526;BME280;13424;48.424;11.258;2023-05-10T05:12:48;95094.50;;;16.13;84.29
25526;BME280;13424;48.424;11.258;2023-05-10T05:15:14;95084.19;;;16.20;83.73
25526;BME280;13424;48.424;11.258;2023-05-10T05:17:42;95095.38;;;16.03;83.82
25526;BME280;13424;48.424;11.258;2023-05-10T05:20:09;95094.75;;;15.87;84.99
25526;BME280;13424;48.424;11.258;2023-05-10T05:22:36;95097.97;;;15.89;84.04
25526;BME280;13424;48.424;11.258;2023-05-10T05:25:03;95100.66;;;15.89;83.88
25526;BME280;13424;48.424;11.258;2023-05-10T05:27:29;95096.06;;;15.66;84.75
25526;BME280;13424;48.424;11.258;2023-05-10T05:29:58;95099.88;;;15.89;83.33
25526;BME280;13424;48.424;11.258;2023-05-10T05:32:24;95104.78;;;15.82;83.00
25526;BME280;13424;48.424;11.258;2023-05-10T05:34:51;95099.84;;;15.65;84.13
25526;BME280;13424;48.424;11.258;2023-05-10T05:37:20;95109.97;;;15.73;83.82
25526;BME280;13424;48.424;11.258;2023-05-10T05:39:46;95112.88;;;15.77;83.65
25526;BME280;13424;48.424;11.258;2023-05-10T05:42:13;95107.34;;;15.63;84.25
25526;BME280;13424;48.424;11.258;2023-05-10T05:44:42;95113.25;;;15.94;84.21
25526;BME280;13424;48.424;11.258;2023-05-10T05:47:08;95114.97;;;16.33;82.11
25526;BME280;13424;48.424;11.258;2023-05-10T05:49:33;95113.81;;;15.91;83.35
25526;BME280;13424;48.424;11.258;2023-05-10T05:52:03;95122.38;;;16.70;80.82
25526;BME280;13424;48.424;11.258;2023-05-10T05:54:30;95119.84;;;16.07;80.92
25526;BME280;13424;48.424;11.258;2023-05-10T05:56:57;95122.41;;;15.93;81.89
25526;BME280;13424;48.424;11.258;2023-05-10T05:59:24;95132.22;;;16.32;81.80
25526;BME280;13424;48.424;11.258;2023-05-10T06:01:50;95131.28;;;16.41;81.28
25526;BME280;13424;48.424;11.258;2023-05-10T06:04:16;95135.56;;;15.95;82.72
25526;BME280;13424;48.424;11.258;2023-05-10T06:06:42;95134.22;;;16.69;80.23
25526;BME280;13424;48.424;11.258;2023-05-10T06:09:09;95135.06;;;17.07;78.82
25526;BME280;13424;48.424;11.258;2023-05-10T06:11:35;95149.34;;;17.08;78.81
25526;BME280;13424;48.424;11.258;2023-05-10T06:14:02;95148.66;;;16.30;80.69
25526;BME280;13424;48.424;11.258;2023-05-10T06:16:30;95145.03;;;16.64;80.02
25526;BME280;13424;48.424;11.258;2023-05-10T06:18:56;95146.00;;;16.73;79.29
25526;BME280;13424;48.424;11.258;2023-05-10T06:21:32;95156.88;;;17.43;77.23
25526;BME280;13424;48.424;11.258;2023-05-10T06:23:57;95159.47;;;17.16;78.11
25526;BME280;13424;48.424;11.258;2023-05-10T06:26:23;95159.50;;;17.29;77.14
25526;BME280;13424;48.424;11.258;2023-05-10T06:28:49;95158.59;;;17.53;76.46
25526;BME280;13424;48.424;11.258;2023-05-10T06:31:15;95162.22;;;16.92;78.88
25526;BME280;13424;48.424;11.258;2023-05-10T06:33:41;95169.56;;;17.05;78.03
25526;BME280;13424;48.424;11.258;2023-05-10T06:36:07;95174.00;;;17.52;76.94
25526;BME280;13424;48.424;11.258;2023-05-10T06:38:33;95177.78;;;17.14;78.67
25526;BME280;13424;48.424;11.258;2023-05-10T06:40:58;95170.75;;;16.99;78.29
25526;BME280;13424;48.424;11.258;2023-05-10T06:43:24;95175.38;;;17.50;77.47
25526;BME280;13424;48.424;11.258;2023-05-10T06:45:51;95177.66;;;17.24;78.70
25526;BME280;13424;48.424;11.258;2023-05-10T06:48:17;95180.94;;;17.40;77.97
25526;BME280;13424;48.424;11.258;2023-05-10T06:50:43;95182.50;;;17.59;77.43
25526;BME280;13424;48.424;11.258;2023-05-10T06:53:09;95183.09;;;18.08;76.33
25526;BME280;13424;48.424;11.258;2023-05-10T06:55:35;95190.44;;;17.89;78.72
25526;BME280;13424;48.424;11.258;2023-05-10T06:58:01;95189.34;;;18.36;75.23
25526;BME280;13424;48.424;11.258;2023-05-10T07:00:28;95181.81;;;18.19;75.07
25526;BME280;13424;48.424;11.258;2023-05-10T07:02:53;95190.63;;;17.78;77.07
25526;BME280;13424;48.424;11.258;2023-05-10T07:05:20;95191.34;;;18.30;75.45
25526;BME280;13424;48.424;11.258;2023-05-10T07:07:46;95193.91;;;18.22;75.76
25526;BME280;13424;48.424;11.258;2023-05-10T07:10:12;95205.50;;;18.68;75.40
25526;BME280;13424;48.424;11.258;2023-05-10T07:12:38;95200.16;;;18.36;74.31
25526;BME280;13424;48.424;11.258;2023-05-10T07:15:05;95198.81;;;16.93;74.74
25526;BME280;13424;48.424;11.258;2023-05-10T07:17:31;95202.50;;;17.77;77.62
25526;BME280;13424;48.424;11.258;2023-05-10T07:19:59;95198.47;;;17.94;75.63
25526;BME280;13424;48.424;11.258;2023-05-10T07:22:25;95203.41;;;18.19;75.44
25526;BME280;13424;48.424;11.258;2023-05-10T07:24:51;95198.91;;;17.44;76.45
25526;BME280;13424;48.424;11.258;2023-05-10T07:27:17;95198.97;;;17.77;75.53
25526;BME280;13424;48.424;11.258;2023-05-10T07:29:43;95196.59;;;17.56;75.31
25526;BME280;13424;48.424;11.258;2023-05-10T07:32:09;95196.06;;;17.36;76.88
25526;BME280;13424;48.424;11.258;2023-05-10T07:34:34;95206.63;;;17.51;76.04
25526;BME280;13424;48.424;11.258;2023-05-10T07:40:43;95207.16;;;17.72;75.26
25526;BME280;13424;48.424;11.258;2023-05-10T07:43:09;95203.22;;;18.29;74.39
25526;BME280;13424;48.424;11.258;2023-05-10T07:45:35;95206.94;;;18.01;76.46
25526;BME280;13424;48.424;11.258;2023-05-10T07:48:01;95211.78;;;18.04;75.93
25526;BME280;13424;48.424;11.258;2023-05-10T07:50:27;95213.75;;;17.98;74.66
25526;BME280;13424;48.424;11.258;2023-05-10T07:52:52;95204.84;;;17.98;75.40
25526;BME280;13424;48.424;11.258;2023-05-10T07:55:19;95206.56;;;17.75;75.57
25526;BME280;13424;48.424;11.258;2023-05-10T08:01:52;95206.16;;;17.30;77.20
25526;BME280;13424;48.424;11.258;2023-05-10T08:04:17;95205.19;;;17.21;78.18
25526;BME280;13424;48.424;11.258;2023-05-10T08:06:43;95212.03;;;17.32;75.89
25526;BME280;13424;48.424;11.258;2023-05-10T08:09:09;95208.16;;;17.57;75.76
25526;BME280;13424;48.424;11.258;2023-05-10T08:11:35;95209.59;;;17.68;75.26
25526;BME280;13424;48.424;11.258;2023-05-10T08:14:01;95200.94;;;17.52;76.32
25526;BME280;13424;48.424;11.258;2023-05-10T08:16:26;95217.72;;;17.87;74.70
25526;BME280;13424;48.424;11.258;2023-05-10T08:18:52;95210.38;;;18.06;75.38
25526;BME280;13424;48.424;11.258;2023-05-10T08:21:20;95210.00;;;17.62;73.82
25526;BME280;13424;48.424;11.258;2023-05-10T08:23:46;95204.41;;;17.39;75.35
25526;BME280;13424;48.424;11.258;2023-05-10T08:26:12;95212.09;;;17.65;75.82
25526;BME280;13424;48.424;11.258;2023-05-10T08:28:46;95215.59;;;18.17;75.84
25526;BME280;13424;48.424;11.258;2023-05-10T08:31:12;95207.78;;;19.03;71.39
25526;BME280;13424;48.424;11.258;2023-05-10T08:33:38;95209.50;;;18.85;72.60
25526;BME280;13424;48.424;11.258;2023-05-10T08:40:11;95213.00;;;19.63;69.28
25526;BME280;13424;48.424;11.258;2023-05-10T08:42:39;95220.50;;;18.75;70.47
25526;BME280;13424;48.424;11.258;2023-05-10T08:45:07;95218.63;;;19.52;68.52
25526;BME280;13424;48.424;11.258;2023-05-10T08:47:37;95212.78;;;19.09;68.99
25526;BME280;13424;48.424;11.258;2023-05-10T08:50:03;95208.31;;;18.77;69.95
25526;BME280;13424;48.424;11.258;2023-05-10T08:52:30;95205.06;;;18.61;68.81
25526;BME280;13424;48.424;11.258;2023-05-10T08:54:58;95215.84;;;19.44;69.79
25526;BME280;13424;48.424;11.258;2023-05-10T08:57:24;95217.47;;;19.04;69.69
25526;BME280;13424;48.424;11.258;2023-05-10T08:59:50;95218.91;;;18.87;68.70
25526;BME280;13424;48.424;11.258;2023-05-10T09:02:16;95217.19;;;18.78;69.45
25526;BME280;13424;48.424;11.258;2023-05-10T09:04:43;95217.25;;;18.45;70.41
25526;BME280;13424;48.424;11.258;2023-05-10T09:07:09;95217.22;;;19.05;69.50
25526;BME280;13424;48.424;11.258;2023-05-10T09:09:36;95229.06;;;19.59;67.24
25526;BME280;13424;48.424;11.258;2023-05-10T09:12:02;95227.00;;;19.51;68.83
25526;BME280;13424;48.424;11.258;2023-05-10T09:14:28;95229.75;;;19.87;66.64
25526;BME280;13424;48.424;11.258;2023-05-10T09:16:55;95219.19;;;19.99;64.99
25526;BME280;13424;48.424;11.258;2023-05-10T09:19:21;95219.78;;;20.19;64.22
25526;BME280;13424;48.424;11.258;2023-05-10T09:21:47;95219.91;;;19.69;65.50
25526;BME280;13424;48.424;11.258;2023-05-10T09:24:14;95224.28;;;20.85;65.09
25526;BME280;13424;48.424;11.258;2023-05-10T09:26:47;95229.06;;;20.49;64.88
25526;BME280;13424;48.424;11.258;2023-05-10T09:29:14;95220.06;;;19.72;63.88
25526;BME280;13424;48.424;11.258;2023-05-10T09:31:44;95222.13;;;19.53;64.26
25526;BME280;13424;48.424;11.258;2023-05-10T09:34:16;95224.63;;;19.86;65.20
25526;BME280;13424;48.424;11.258;2023-05-10T09:37:00;95223.63;;;20.49;63.38
25526;BME280;13424;48.424;11.258;2023-05-10T09:39:31;95227.72;;;20.15;63.23
25526;BME280;13424;48.424;11.258;2023-05-10T09:41:59;95229.91;;;20.35;64.31
25526;BME280;13424;48.424;11.258;2023-05-10T09:44:26;95230.91;;;20.40;63.63
25526;BME280;13424;48.424;11.258;2023-05-10T09:46:52;95231.94;;;20.92;61.52
25526;BME280;13424;48.424;11.258;2023-05-10T09:49:22;95229.00;;;20.71;62.40
25526;BME280;13424;48.424;11.258;2023-05-10T09:52:00;95231.94;;;20.92;62.71
25526;BME280;13424;48.424;11.258;2023-05-10T09:54:26;95236.75;;;21.95;61.20
25526;BME280;13424;48.424;11.258;2023-05-10T09:56:52;95231.06;;;21.14;60.73
25526;BME280;13424;48.424;11.258;2023-05-10T09:59:18;95230.53;;;19.88;63.42
25526;BME280;13424;48.424;11.258;2023-05-10T10:01:50;95228.41;;;19.12;63.80
25526;BME280;13424;48.424;11.258;2023-05-10T10:04:16;95230.31;;;19.75;63.57
25526;BME280;13424;48.424;11.258;2023-05-10T10:06:42;95230.94;;;19.59;65.01
25526;BME280;13424;48.424;11.258;2023-05-10T10:09:09;95236.84;;;19.47;66.18
25526;BME280;13424;48.424;11.258;2023-05-10T10:11:38;95231.38;;;19.24;64.96
25526;BME280;13424;48.424;11.258;2023-05-10T10:14:05;95232.72;;;19.13;64.62
25526;BME280;13424;48.424;11.258;2023-05-10T10:16:31;95237.47;;;18.61;66.56
25526;BME280;13424;48.424;11.258;2023-05-10T10:18:57;95235.66;;;18.43;67.58
25526;BME280;13424;48.424;11.258;2023-05-10T10:21:24;95238.44;;;18.98;65.94
25526;BME280;13424;48.424;11.258;2023-05-10T10:23:50;95243.81;;;18.84;64.61
25526;BME280;13424;48.424;11.258;2023-05-10T10:26:17;95238.69;;;19.38;64.77
25526;BME280;13424;48.424;11.258;2023-05-10T10:34:56;95232.50;;;19.23;65.22
25526;BME280;13424;48.424;11.258;2023-05-10T10:37:22;95233.22;;;19.65;66.51
25526;BME280;13424;48.424;11.258;2023-05-10T10:39:49;95224.59;;;20.53;62.91
25526;BME280;13424;48.424;11.258;2023-05-10T10:42:44;95227.72;;;20.15;62.94
25526;BME280;13424;48.424;11.258;2023-05-10T10:45:12;95232.13;;;19.89;60.89
25526;BME280;13424;48.424;11.258;2023-05-10T10:47:37;95229.25;;;19.85;63.37
25526;BME280;13424;48.424;11.258;2023-05-10T10:50:06;95229.13;;;19.54;64.27
25526;BME280;13424;48.424;11.258;2023-05-10T10:52:37;95233.84;;;19.62;64.71
25526;BME280;13424;48.424;11.258;2023-05-10T10:55:13;95231.69;;;20.62;62.12
25526;BME280;13424;48.424;11.258;2023-05-10T10:57:56;95232.16;;;20.65;61.30
25526;BME280;13424;48.424;11.258;2023-05-10T11:00:35;95228.50;;;20.69;60.94
25526;BME280;13424;48.424;11.258;2023-05-10T11:03:11;95228.28;;;20.57;60.42
25526;BME280;13424;48.424;11.258;2023-05-10T11:05:49;95226.44;;;21.23;60.08
25526;BME280;13424;48.424;11.258;2023-05-10T11:08:26;95228.78;;;21.64;59.90
25526;BME280;13424;48.424;11.258;2023-05-10T11:11:02;95226.09;;;21.73;59.58
25526;BME280;13424;48.424;11.258;2023-05-10T11:13:44;95229.09;;;21.63;60.09
25526;BME280;13424;48.424;11.258;2023-05-10T11:16:24;95223.78;;;20.83;61.22
25526;BME280;13424;48.424;11.258;2023-05-10T11:19:01;95221.25;;;20.47;63.24
25526;BME280;13424;48.424;11.258;2023-05-10T11:21:28;95236.31;;;19.95;65.12
25526;BME280;13424;48.424;11.258;2023-05-10T11:24:00;95232.25;;;19.34;66.24
25526;BME280;13424;48.424;11.258;2023-05-10T11:26:32;95238.72;;;18.83;68.00
25526;BME280;13424;48.424;11.258;2023-05-10T11:28:58;95243.03;;;17.72;71.60
25526;BME280;13424;48.424;11.258;2023-05-10T11:31:26;95236.13;;;17.99;71.98
25526;BME280;13424;48.424;11.258;2023-05-10T11:33:58;95234.75;;;17.26;69.61
25526;BME280;13424;48.424;11.258;2023-05-10T11:36:31;95238.81;;;16.81;72.13
25526;BME280;13424;48.424;11.258;2023-05-10T11:38:57;95247.84;;;16.13;75.70
25526;BME280;13424;48.424;11.258;2023-05-10T11:41:24;95241.31;;;16.19;76.09
25526;BME280;13424;48.424;11.258;2023-05-10T11:43:52;95244.88;;;16.09;78.21
25526;BME280;13424;48.424;11.258;2023-05-10T11:46:20;95253.56;;;16.01;79.45
25526;BME280;13424;48.424;11.258;2023-05-10T11:48:49;95257.72;;;16.17;79.64
25526;BME280;13424;48.424;11.258;2023-05-10T11:51:20;95260.53;;;16.07;80.54
25526;BME280;13424;48.424;11.258;2023-05-10T11:53:46;95267.72;;;15.83;81.54
25526;BME280;13424;48.424;11.258;2023-05-10T11:56:12;95272.47;;;15.96;81.84
25526;BME280;13424;48.424;11.258;2023-05-10T11:58:39;95265.19;;;16.26;81.02
25526;BME280;13424;48.424;11.258;2023-05-10T12:01:07;95272.47;;;16.54;80.50
25526;BME280;13424;48.424;11.258;2023-05-10T12:03:33;95270.53;;;16.60;79.88
25526;BME280;13424;48.424;11.258;2023-05-10T12:06:00;95271.38;;;16.84;77.44
25526;BME280;13424;48.424;11.258;2023-05-10T12:08:28;95268.63;;;17.32;76.87
25526;BME280;13424;48.424;11.258;2023-05-10T12:11:07;95264.44;;;16.78;75.34
25526;BME280;13424;48.424;11.258;2023-05-10T12:13:42;95265.31;;;16.44;76.34
25526;BME280;13424;48.424;11.258;2023-05-10T12:16:18;95266.00;;;16.55;77.72
25526;BME280;13424;48.424;11.258;2023-05-10T12:18:45;95261.84;;;17.35;77.93
25526;BME280;13424;48.424;11.258;2023-05-10T12:21:13;95265.28;;;17.59;74.90
25526;BME280;13424;48.424;11.258;2023-05-10T12:23:41;95258.13;;;16.59;75.45
25526;BME280;13424;48.424;11.258;2023-05-10T12:26:15;95262.84;;;17.63;74.90
25526;BME280;13424;48.424;11.258;2023-05-10T12:28:41;95252.50;;;17.89;73.53
25526;BME280;13424;48.424;11.258;2023-05-10T12:31:07;95255.25;;;18.02;74.43
25526;BME280;13424;48.424;11.258;2023-05-10T12:33:43;95257.94;;;18.02;75.73
25526;BME280;13424;48.424;11.258;2023-05-10T12:36:14;95258.13;;;17.73;72.80
25526;BME280;13424;48.424;11.258;2023-05-10T12:38:42;95251.09;;;18.10;71.66
25526;BME280;13424;48.424;11.258;2023-05-10T12:41:14;95259.84;;;18.81;71.13
25526;BME280;13424;48.424;11.258;2023-05-10T12:43:40;95258.53;;;18.78;71.18
25526;BME280;13424;48.424;11.258;2023-05-10T12:46:11;95259.94;;;18.76;70.56
25526;BME280;13424;48.424;11.258;2023-05-10T12:48:39;95262.91;;;19.57;69.43
25526;BME280;13424;48.424;11.258;2023-05-10T12:51:06;95276.69;;;19.55;70.40
25526;BME280;13424;48.424;11.258;2023-05-10T12:53:35;95272.19;;;19.50;71.62
25526;BME280;13424;48.424;11.258;2023-05-10T12:56:01;95275.59;;;19.42;69.26
25526;BME280;13424;48.424;11.258;2023-05-10T12:58:27;95269.59;;;19.95;69.54
25526;BME280;13424;48.424;11.258;2023-05-10T13:00:53;95280.47;;;19.82;69.89
25526;BME280;13424;48.424;11.258;2023-05-10T13:07:25;95274.16;;;18.81;72.73
25526;BME280;13424;48.424;11.258;2023-05-10T13:09:51;95283.63;;;19.34;71.04
25526;BME280;13424;48.424;11.258;2023-05-10T13:12:17;95276.63;;;19.46;72.71
25526;BME280;13424;48.424;11.258;2023-05-10T13:14:43;95279.88;;;19.85;72.34
25526;BME280;13424;48.424;11.258;2023-05-10T13:17:08;95283.25;;;19.27;72.79
25526;BME280;13424;48.424;11.258;2023-05-10T13:19:34;95280.94;;;16.95;79.34
25526;BME280;13424;48.424;11.258;2023-05-10T13:22:00;95291.00;;;17.51;79.80
25526;BME280;13424;48.424;11.258;2023-05-10T13:24:26;95290.59;;;17.20;78.86
25526;BME280;13424;48.424;11.258;2023-05-10T13:30:37;95295.09;;;17.68;77.17
25526;BME280;13424;48.424;11.258;2023-05-10T13:33:02;95290.03;;;17.85;75.57
25526;BME280;13424;48.424;11.258;2023-05-10T13:35:28;95295.75;;;18.67;73.07
25526;BME280;13424;48.424;11.258;2023-05-10T13:37:54;95299.25;;;18.17;74.00